Time;durP1;ratioP1;P1;durP2;ratioP2;P2;SDS_P1;SDS_P2;PMS_P1;PMS_P2;Temp;Humidity;BMP_temperature;BMP_pressure;BME280_temperature;BME280_humidity;BME280_pressure;Samples;Min_cycle;Max_cycle;Signal;HPM_P1;HPM_P2
2022/11/26 05:22:34;;;;;;;5.80;2.97;;;;;;;6.23;100.00;101537.47;5109166;27;20323;-66
2022/11/26 05:24:59;;;;;;;3.50;2.28;;;;;;;6.25;100.00;101549.63;5109515;28;20088;-67
2022/11/26 05:27:24;;;;;;;4.72;2.83;;;;;;;6.25;100.00;101544.31;5109280;28;20031;-68
2022/11/26 05:29:50;;;;;;;6.43;3.03;;;;;;;6.28;100.00;101555.66;5108052;28;20464;-67
2022/11/26 05:32:15;;;;;;;7.75;3.20;;;;;;;6.30;100.00;101559.03;5107983;28;20043;-67
2022/11/26 05:34:41;;;;;;;4.40;2.72;;;;;;;6.31;100.00;101558.06;5109717;28;20382;-68
2022/11/26 05:37:06;;;;;;;4.85;2.10;;;;;;;6.29;100.00;101565.28;5109126;28;20104;-69
2022/11/26 05:39:32;;;;;;;4.50;2.20;;;;;;;6.29;100.00;101560.84;5109198;28;20071;-68
2022/11/26 05:41:57;;;;;;;7.15;3.45;;;;;;;6.31;100.00;101560.72;5108805;28;20085;-69
2022/11/26 05:44:23;;;;;;;5.63;3.25;;;;;;;6.34;100.00;101568.44;5109072;28;20507;-69
2022/11/26 05:46:48;;;;;;;7.72;3.50;;;;;;;6.31;100.00;101568.66;5108971;28;20028;-68
2022/11/26 05:49:13;;;;;;;4.38;2.85;;;;;;;6.30;100.00;101581.03;5107845;28;20457;-68
2022/11/26 05:51:39;;;;;;;6.05;2.65;;;;;;;6.31;100.00;101582.72;5108394;28;20031;-68
2022/11/26 05:54:06;;;;;;;6.47;3.90;;;;;;;6.34;100.00;101576.38;5107775;28;20044;-68
2022/11/26 05:56:31;;;;;;;8.38;3.38;;;;;;;6.36;100.00;101577.09;5108777;28;20044;-68
2022/11/26 05:58:57;;;;;;;6.78;3.40;;;;;;;6.39;100.00;101582.16;5108855;28;20443;-69
2022/11/26 06:01:22;;;;;;;11.50;5.25;;;;;;;6.40;100.00;101579.41;5108415;28;20084;-68
2022/11/26 06:03:48;;;;;;;7.28;4.30;;;;;;;6.40;100.00;101586.50;5108887;28;20580;-68
2022/11/26 06:06:13;;;;;;;6.10;3.25;;;;;;;6.37;100.00;101600.81;5108469;28;20119;-69
2022/11/26 06:08:38;;;;;;;5.38;3.05;;;;;;;6.39;100.00;101598.03;5108893;28;20043;-68
2022/11/26 06:11:04;;;;;;;7.15;3.88;;;;;;;6.41;100.00;101604.91;5108274;28;20039;-68
2022/11/26 06:13:29;;;;;;;9.23;3.10;;;;;;;6.42;100.00;101603.13;5108430;28;20054;-67
2022/11/26 06:15:55;;;;;;;12.38;4.30;;;;;;;6.44;100.00;101609.97;5108478;28;20051;-69
2022/11/26 06:18:20;;;;;;;5.72;3.42;;;;;;;6.43;100.00;101604.81;5108422;28;20040;-68
2022/11/26 06:20:45;;;;;;;4.78;2.88;;;;;;;6.42;100.00;101619.00;5107902;28;20039;-67
2022/11/26 06:23:11;;;;;;;8.63;3.05;;;;;;;6.43;100.00;101620.69;5108341;28;20040;-68
2022/11/26 06:25:40;;;;;;;4.80;2.72;;;;;;;6.42;100.00;101624.28;5108495;28;20598;-68
2022/11/26 06:28:06;;;;;;;5.20;3.25;;;;;;;6.42;100.00;101626.94;5108318;28;20044;-66
2022/11/26 06:30:31;;;;;;;7.07;2.38;;;;;;;6.40;100.00;101631.50;5107786;28;20721;-67
2022/11/26 06:32:56;;;;;;;4.00;2.15;;;;;;;6.42;100.00;101638.38;5098989;28;20036;-67
2022/11/26 06:35:22;;;;;;;10.27;3.17;;;;;;;6.39;100.00;101635.09;5094347;28;20458;-68
2022/11/26 06:37:47;;;;;;;8.90;3.10;;;;;;;6.43;100.00;101642.69;5094460;28;20040;-67
2022/11/26 06:40:18;;;;;;;3.97;2.53;;;;;;;6.47;100.00;101648.63;5094116;28;20085;-67
2022/11/26 06:42:49;;;;;;;5.88;3.30;;;;;;;6.44;100.00;101651.47;5093013;28;20119;-67
2022/11/26 06:45:14;;;;;;;6.88;2.67;;;;;;;6.42;100.00;101650.75;5093045;28;20032;-68
2022/11/26 06:47:40;;;;;;;7.05;2.80;;;;;;;6.42;100.00;101658.69;5094348;28;20434;-68
2022/11/26 06:50:06;;;;;;;6.47;3.55;;;;;;;6.43;100.00;101652.44;5094087;28;20048;-68
2022/11/26 06:52:31;;;;;;;6.22;2.97;;;;;;;6.38;100.00;101650.13;5093958;28;20043;-67
2022/11/26 06:54:57;;;;;;;7.03;3.13;;;;;;;6.43;100.00;101663.88;5092868;28;20404;-68
2022/11/26 06:57:22;;;;;;;5.25;2.97;;;;;;;6.43;100.00;101673.63;5093904;28;20044;-68
2022/11/26 06:59:47;;;;;;;8.25;3.50;;;;;;;6.38;100.00;101668.66;5094002;28;20494;-69
2022/11/26 07:02:13;;;;;;;7.38;3.08;;;;;;;6.40;100.00;101674.69;5093692;28;20035;-67
2022/11/26 07:04:38;;;;;;;6.60;3.08;;;;;;;6.31;100.00;101663.91;5093919;28;20078;-68
2022/11/26 07:07:04;;;;;;;3.95;2.63;;;;;;;6.35;100.00;101670.69;5093827;28;20028;-67
2022/11/26 07:09:29;;;;;;;8.80;3.20;;;;;;;6.39;100.00;101674.78;5093854;28;20537;-69
2022/11/26 07:11:55;;;;;;;8.88;3.83;;;;;;;6.40;100.00;101672.06;5092047;28;20074;-70
2022/11/26 07:14:21;;;;;;;8.40;3.65;;;;;;;6.41;100.00;101670.25;5093748;28;20100;-69
2022/11/26 07:16:47;;;;;;;7.28;3.53;;;;;;;6.37;100.00;101676.72;5093594;28;20508;-72
2022/11/26 07:19:13;;;;;;;7.70;3.65;;;;;;;6.40;100.00;101680.00;5093574;28;20484;-70
2022/11/26 07:21:39;;;;;;;7.85;3.28;;;;;;;6.38;100.00;101673.94;5093210;28;20114;-70
2022/11/26 07:24:04;;;;;;;5.95;4.03;;;;;;;6.33;100.00;101669.97;5093605;28;20064;-70
2022/11/26 07:26:30;;;;;;;9.75;4.30;;;;;;;6.36;100.00;101675.03;5092068;28;20047;-70
2022/11/26 07:28:55;;;;;;;5.47;3.83;;;;;;;6.30;100.00;101683.41;5093345;28;20135;-70
2022/11/26 07:31:22;;;;;;;7.30;3.67;;;;;;;6.30;100.00;101688.69;5093041;28;20036;-70
2022/11/26 07:33:47;;;;;;;12.85;3.97;;;;;;;6.29;100.00;101695.81;5092042;28;20035;-70
2022/11/26 07:36:19;;;;;;;8.10;3.13;;;;;;;6.28;100.00;101698.56;5091978;28;20040;-69
2022/11/26 07:38:44;;;;;;;5.45;3.88;;;;;;;6.33;100.00;101699.09;5093321;28;20055;-70
2022/11/26 07:41:12;;;;;;;5.45;3.30;;;;;;;6.37;100.00;101697.88;5092847;28;20406;-63
2022/11/26 07:43:40;;;;;;;6.00;3.78;;;;;;;6.43;100.00;101706.22;5092616;28;20504;-64
2022/11/26 07:46:09;;;;;;;11.02;4.60;;;;;;;6.47;100.00;101698.94;5092589;28;20542;-64
2022/11/26 07:48:35;;;;;;;8.50;4.72;;;;;;;6.53;100.00;101694.03;5093032;28;20040;-63
2022/11/26 07:51:01;;;;;;;9.05;4.25;;;;;;;6.61;100.00;101704.06;5091432;28;20039;-62
2022/11/26 07:53:31;;;;;;;9.35;4.55;;;;;;;6.68;100.00;101694.69;5092869;28;20040;-71
2022/11/26 07:55:57;;;;;;;7.72;4.10;;;;;;;6.71;100.00;101699.75;5092897;28;20081;-71
2022/11/26 07:58:23;;;;;;;11.20;4.28;;;;;;;6.79;100.00;101709.81;5092978;28;20044;-71
2022/11/26 08:00:49;;;;;;;7.70;4.88;;;;;;;6.79;100.00;101710.66;5091368;28;20043;-71
2022/11/26 08:03:14;;;;;;;7.85;4.47;;;;;;;6.80;100.00;101716.78;5091712;28;20493;-70
2022/11/26 08:05:41;;;;;;;6.03;3.33;;;;;;;6.79;100.00;101713.31;5092593;28;20040;-70
2022/11/26 08:08:07;;;;;;;10.07;3.50;;;;;;;6.71;100.00;101710.34;5092613;28;20032;-71
2022/11/26 08:10:32;;;;;;;11.05;5.93;;;;;;;6.79;100.00;101717.75;5092216;28;20405;-71
2022/11/26 08:12:58;;;;;;;9.38;4.75;;;;;;;6.78;100.00;101722.22;5091344;28;20044;-71
2022/11/26 08:15:23;;;;;;;12.13;4.68;;;;;;;6.77;100.00;101720.50;5091125;28;20034;-70
2022/11/26 08:17:52;;;;;;;10.07;4.35;;;;;;;6.82;100.00;101732.56;5091197;28;20040;-71
2022/11/26 08:20:18;;;;;;;9.43;3.88;;;;;;;6.77;100.00;101731.09;5091976;28;20044;-72
2022/11/26 08:22:43;;;;;;;13.85;4.00;;;;;;;6.75;100.00;101729.53;5092360;28;20089;-71
2022/11/26 08:25:08;;;;;;;9.10;4.47;;;;;;;6.76;100.00;101737.34;5090930;28;20481;-71
2022/11/26 08:27:34;;;;;;;7.93;4.40;;;;;;;6.84;100.00;101738.59;5090933;28;20046;-71
2022/11/26 08:29:59;;;;;;;5.85;3.60;;;;;;;6.88;100.00;101740.91;5092084;28;20043;-70
2022/11/26 08:32:25;;;;;;;12.23;4.22;;;;;;;6.83;100.00;101747.50;5092006;28;20036;-70
2022/11/26 08:34:50;;;;;;;10.95;4.60;;;;;;;6.86;100.00;101740.19;5092190;28;20502;-72
2022/11/26 08:37:16;;;;;;;9.27;4.03;;;;;;;6.88;100.00;101748.00;5092024;28;20051;-71
2022/11/26 08:39:41;;;;;;;15.43;4.60;;;;;;;6.92;100.00;101744.19;5092053;28;20047;-71
2022/11/26 08:42:06;;;;;;;10.95;4.53;;;;;;;6.92;100.00;101744.19;5091876;28;20127;-71
2022/11/26 08:44:32;;;;;;;12.93;4.47;;;;;;;6.96;100.00;101738.53;5092005;28;20044;-70
2022/11/26 08:46:57;;;;;;;9.35;4.70;;;;;;;6.90;100.00;101722.25;5090575;28;20135;-70
2022/11/26 08:49:22;;;;;;;12.90;4.35;;;;;;;7.00;100.00;101749.75;5092037;28;20036;-71
2022/11/26 08:51:48;;;;;;;6.97;3.55;;;;;;;7.00;100.00;101750.59;5091541;28;20047;-71
2022/11/26 08:54:13;;;;;;;9.98;4.30;;;;;;;6.98;100.00;101746.38;5090686;28;20143;-71
2022/11/26 08:56:39;;;;;;;9.13;4.55;;;;;;;7.01;100.00;101746.97;5090363;28;20075;-71
2022/11/26 08:59:04;;;;;;;10.32;4.15;;;;;;;7.04;100.00;101759.16;5091886;28;20138;-70
2022/11/26 09:01:32;;;;;;;6.47;4.22;;;;;;;7.09;100.00;101757.00;5091473;28;20040;-72
2022/11/26 09:03:59;;;;;;;10.85;4.65;;;;;;;7.13;100.00;101761.13;5090597;28;20484;-71
2022/11/26 09:06:28;;;;;;;8.77;3.65;;;;;;;7.15;100.00;101759.19;5090438;28;20044;-70
2022/11/26 09:09:12;;;;;;;7.88;4.07;;;;;;;7.20;100.00;101765.00;5073796;28;20032;-71
2022/11/26 09:11:39;;;;;;;12.75;4.53;;;;;;;7.21;100.00;101763.22;5091616;28;20084;-70
2022/11/26 09:14:04;;;;;;;9.02;3.97;;;;;;;7.22;100.00;101765.72;5091733;28;20537;-70
2022/11/26 09:16:30;;;;;;;11.55;3.33;;;;;;;7.24;100.00;101766.50;5091567;28;20126;-71
2022/11/26 09:18:58;;;;;;;11.50;4.13;;;;;;;7.28;100.00;101770.59;5090318;28;20040;-71
2022/11/26 09:21:23;;;;;;;;;;;;;;;7.30;100.00;101773.97;5091563;28;20058;-71
2022/11/26 09:23:49;;;;;;;7.47;3.60;;;;;;;7.31;100.00;101773.03;5091509;28;19912;-71
2022/11/26 09:26:14;;;;;;;6.50;3.33;;;;;;;7.30;100.00;101779.28;5091485;28;20074;-70
2022/11/26 09:28:39;;;;;;;7.78;4.10;;;;;;;7.36;100.00;101775.31;5090159;28;20375;-72
2022/11/26 09:31:05;;;;;;;6.88;4.13;;;;;;;7.40;100.00;101774.13;5091064;28;20043;-70
2022/11/26 09:33:31;;;;;;;7.85;3.72;;;;;;;7.46;100.00;101778.13;5091427;28;20063;-70
2022/11/26 09:36:23;;;;;;;6.97;3.38;;;;;;;7.44;100.00;101769.44;5091414;28;20441;-70
2022/11/26 09:38:53;;;;;;;8.38;3.47;;;;;;;7.47;100.00;101777.16;5090165;28;20091;-71
2022/11/26 09:41:29;;;;;;;10.23;3.67;;;;;;;7.48;100.00;101781.50;5091017;28;20489;-71
2022/11/26 09:44:24;;;;;;;12.38;3.53;;;;;;;7.57;100.00;101781.66;5091548;28;20036;-71
2022/11/26 09:47:21;;;;;;;9.02;3.30;;;;;;;7.57;100.00;101788.78;5091579;28;20090;-71
2022/11/26 09:50:01;;;;;;;9.53;3.80;;;;;;;7.66;100.00;101779.25;5091633;28;20479;-71
2022/11/26 09:52:46;;;;;;;7.70;3.83;;;;;;;7.71;100.00;101785.06;5091061;28;20032;-70
2022/11/26 09:55:33;;;;;;;11.30;3.70;;;;;;;7.74;100.00;101774.19;5091307;28;20036;-71
2022/11/26 09:58:22;;;;;;;7.43;3.25;;;;;;;7.85;100.00;101775.06;5090106;28;20109;-71
2022/11/26 10:00:51;;;;;;;10.70;3.75;;;;;;;7.87;100.00;101772.28;5090971;28;20051;-71
2022/11/26 10:03:37;;;;;;;8.18;3.10;;;;;;;7.94;100.00;101770.84;5090098;28;20039;-72
2022/11/26 10:06:22;;;;;;;7.95;3.33;;;;;;;8.04;100.00;101768.34;5090979;28;20052;-71
2022/11/26 10:09:00;;;;;;;8.80;3.38;;;;;;;8.15;100.00;101766.53;5094114;28;20040;-70
2022/11/26 10:11:48;;;;;;;4.03;2.67;;;;;;;8.34;100.00;101765.91;5093534;28;20533;-71
2022/11/26 10:14:25;;;;;;;5.10;2.88;;;;;;;8.59;100.00;101763.97;5094930;28;20551;-71
2022/11/26 10:17:14;;;;;;;6.93;2.75;;;;;;;8.77;100.00;101770.47;5094924;28;20039;-71
2022/11/26 10:19:53;;;;;;;4.63;2.33;;;;;;;8.85;100.00;101777.81;5094982;28;20531;-62
2022/11/26 10:22:36;;;;;;;6.22;2.60;;;;;;;8.86;100.00;101776.84;5094665;28;20374;-61
2022/11/26 10:25:12;;;;;;;4.97;2.50;;;;;;;8.96;100.00;101780.44;5095014;28;20093;-71
2022/11/26 10:27:38;;;;;;;4.68;2.85;;;;;;;9.31;100.00;101776.69;5093662;28;20044;-71
2022/11/26 10:30:18;;;;;;;6.43;2.58;;;;;;;9.56;99.68;101776.31;5093317;28;20365;-71
2022/11/26 10:32:45;;;;;;;6.28;2.20;;;;;;;9.70;96.79;101769.81;5094930;28;20042;-70
2022/11/26 10:35:23;;;;;;;5.07;2.10;;;;;;;9.89;94.22;101769.09;5094580;28;20046;-70
2022/11/26 10:37:49;;;;;;;5.53;2.13;;;;;;;9.82;94.78;101767.94;5094765;28;20036;-71
2022/11/26 10:40:18;;;;;;;7.63;2.35;;;;;;;9.83;94.08;101766.94;5093113;28;20032;-71
2022/11/26 10:42:54;;;;;;;3.65;2.25;;;;;;;10.44;93.43;101764.34;5094631;28;20093;-72
2022/11/26 10:45:25;;;;;;;2.00;1.50;;;;;;;10.76;88.61;101761.47;5094528;28;20067;-73
2022/11/26 10:47:50;;;;;;;4.00;1.58;;;;;;;10.85;85.83;101758.81;5093253;28;20040;-71
2022/11/26 10:50:24;;;;;;;3.15;2.20;;;;;;;11.06;85.39;101755.16;5094127;28;20038;-71
2022/11/26 10:52:53;;;;;;;5.55;1.90;;;;;;;10.79;84.86;101754.03;5094221;28;20076;-72
2022/11/26 10:55:40;;;;;;;7.28;1.75;;;;;;;10.71;84.82;101758.38;5092875;28;20044;-72
2022/11/26 10:58:15;;;;;;;9.77;2.25;;;;;;;10.57;86.84;101755.13;5094320;28;20044;-72
2022/11/26 11:00:55;;;;;;;3.35;1.90;;;;;;;10.39;88.19;101748.75;5092612;28;20409;-72
2022/11/26 11:03:28;;;;;;;2.30;1.52;;;;;;;10.18;88.66;101750.59;5094096;28;20537;-73
2022/11/26 11:06:54;;;;;;;6.95;2.28;;;;;;;10.53;87.64;101745.69;5093955;28;20051;-73
2022/11/26 11:09:32;;;;;;;5.90;2.05;;;;;;;10.34;87.16;101742.97;5070169;28;20056;-72
2022/11/26 11:12:09;;;;;;;4.00;2.17;;;;;;;10.66;86.52;101747.25;5092469;28;20051;-72
2022/11/26 11:14:36;;;;;;;5.28;1.60;;;;;;;11.01;85.87;101736.91;5093949;28;20047;-72
2022/11/26 11:17:02;;;;;;;7.30;2.05;;;;;;;11.45;83.04;101734.66;5093777;28;20608;-73
2022/11/26 11:19:27;;;;;;;6.45;1.95;;;;;;;11.54;80.39;101731.13;5093744;28;20067;-72
2022/11/26 11:21:53;;;;;;;7.93;1.50;;;;;;;11.84;77.81;101729.25;5093321;28;20063;-72
2022/11/26 11:24:26;;;;;;;2.97;1.60;;;;;;;12.62;75.31;101724.38;5093665;28;20071;-72
2022/11/26 11:26:56;;;;;;;5.60;2.00;;;;;;;13.42;70.12;101722.63;5093579;28;20050;-72
2022/11/26 11:29:26;;;;;;;8.98;2.25;;;;;;;13.48;68.81;101724.66;5093537;28;20113;-73
2022/11/26 11:31:52;;;;;;;4.25;2.65;;;;;;;14.10;66.02;101720.03;5093256;28;20032;-72
2022/11/26 11:34:26;;;;;;;8.50;2.28;;;;;;;14.44;64.18;101721.81;5109316;22;20539;-64
2022/11/26 11:37:20;;;;;;;3.80;1.20;;;;;;;15.23;60.28;101723.16;5073546;28;20428;-65
2022/11/26 11:40:02;;;;;;;7.70;1.90;;;;;;;15.06;60.98;101717.78;5072470;28;20045;-65
2022/11/26 11:42:28;;;;;;;7.75;1.80;;;;;;;14.58;62.66;101710.50;5073098;28;20056;-65
2022/11/26 11:44:55;;;;;;;4.75;1.52;;;;;;;14.06;63.41;101715.97;5085351;28;20067;-64
2022/11/26 11:47:36;;;;;;;4.05;2.20;;;;;;;14.18;64.51;101703.13;5093419;28;20463;-65
2022/11/26 11:50:11;;;;;;;4.13;1.88;;;;;;;14.44;64.01;101695.03;5093255;28;20032;-65
2022/11/26 11:53:04;;;;;;;4.32;2.00;;;;;;;14.81;61.82;101689.25;5091810;28;20036;-65
2022/11/26 11:56:02;;;;;;;5.65;1.80;;;;;;;15.73;59.50;101694.25;5093097;28;20042;-65
2022/11/26 11:58:27;;;;;;;2.80;1.52;;;;;;;14.87;58.97;101686.75;5093140;28;20032;-65
2022/11/26 12:01:17;;;;;;;4.65;1.88;;;;;;;14.63;60.02;101697.44;5092560;28;20043;-65
2022/11/26 12:04:20;;;;;;;5.97;1.92;;;;;;;14.01;63.64;101691.50;5093011;28;20485;-65
2022/11/26 12:06:49;;;;;;;8.90;4.38;;;;;;;14.08;65.05;101684.50;5091854;28;20028;-64
2022/11/26 12:09:37;;;;;;;16.17;6.88;;;;;;;14.02;66.11;101682.50;5092944;28;20044;-65
2022/11/26 12:12:16;;;;;;;8.13;2.17;;;;;;;13.24;67.80;101683.38;5092431;28;20028;-65
2022/11/26 12:14:47;;;;;;;8.32;3.17;;;;;;;13.22;69.22;101679.97;5092929;28;20039;-65
2022/11/26 12:17:16;;;;;;;5.93;1.75;;;;;;;12.82;69.82;101687.63;5092907;28;20063;-65
2022/11/26 12:19:56;;;;;;;7.25;2.92;;;;;;;13.16;70.47;101693.94;5092555;28;20039;-64
2022/11/26 12:22:41;;;;;;;8.57;3.63;;;;;;;13.46;67.38;101689.19;5086468;28;20512;-63
2022/11/26 12:25:18;;;;;;;6.97;2.22;;;;;;;13.37;70.11;101685.63;5092092;28;20047;-62
2022/11/26 12:27:50;;;;;;;4.50;2.42;;;;;;;13.56;66.23;101688.09;5092541;28;20050;-63
2022/11/26 12:30:26;;;;;;;5.10;2.60;;;;;;;13.52;68.79;101685.88;5091800;28;20051;-63
2022/11/26 12:33:01;;;;;;;4.95;2.78;;;;;;;13.95;67.27;101703.69;5092503;28;20454;-62
2022/11/26 12:35:38;;;;;;;5.15;2.20;;;;;;;13.42;69.09;101693.16;5092257;28;20062;-63
2022/11/26 12:38:48;;;;;;;5.05;1.98;;;;;;;13.37;70.30;101699.00;5092250;28;20040;-62
2022/11/26 12:41:20;;;;;;;4.15;2.67;;;;;;;12.93;71.99;101690.09;5057657;28;20048;-63
2022/11/26 12:44:19;;;;;;;6.72;2.55;;;;;;;12.72;74.32;101691.25;5092248;28;20070;-63
2022/11/26 12:47:07;;;;;;;5.63;2.22;;;;;;;12.52;73.57;101691.50;5092233;28;20063;-66
2022/11/26 12:49:42;;;;;;;5.05;2.47;;;;;;;12.65;73.21;101695.53;5092315;28;20472;-63
2022/11/26 12:52:23;;;;;;;9.65;3.20;;;;;;;12.39;73.54;101692.75;5091808;28;20028;-65
2022/11/26 12:55:02;;;;;;;5.68;2.65;;;;;;;12.47;74.74;101694.66;5090779;28;20036;-64
2022/11/26 12:57:35;;;;;;;9.43;2.80;;;;;;;12.45;75.89;101689.47;5092174;28;20603;-64
2022/11/26 13:00:14;;;;;;;4.50;2.30;;;;;;;12.16;76.78;101694.13;5091971;28;20024;-65
2022/11/26 13:02:43;;;;;;;7.70;2.25;;;;;;;12.37;75.16;101694.69;5092143;28;20138;-64
2022/11/26 13:05:17;;;;;;;6.60;2.58;;;;;;;12.57;74.06;101679.38;5091868;28;20119;-64
2022/11/26 13:08:06;;;;;;;4.10;2.30;;;;;;;12.51;74.48;101682.66;5091989;28;20110;-64
2022/11/26 13:11:02;;;;;;;8.35;2.88;;;;;;;12.62;73.41;101679.75;5091586;28;20047;-64
2022/11/26 13:13:51;;;;;;;7.70;2.85;;;;;;;12.58;74.41;101686.41;5091688;28;20050;-64
2022/11/26 13:16:37;;;;;;;3.20;1.92;;;;;;;12.33;73.97;101687.16;5091950;28;20032;-63
2022/11/26 13:19:29;;;;;;;11.27;2.75;;;;;;;12.10;75.33;101690.22;5091784;28;20111;-64
2022/11/26 13:22:27;;;;;;;9.27;2.25;;;;;;;11.87;75.84;101687.09;5091604;28;20036;-64
2022/11/26 13:25:19;;;;;;;5.85;2.55;;;;;;;11.74;75.60;101691.06;5086945;28;20448;-63
2022/11/26 13:28:06;;;;;;;4.47;2.15;;;;;;;11.79;76.90;101699.44;5091598;28;20039;-64
2022/11/26 13:30:56;;;;;;;9.38;2.53;;;;;;;11.81;75.16;101702.84;5091322;28;20373;-65
2022/11/26 13:33:36;;;;;;;6.40;2.88;;;;;;;11.63;75.86;101695.56;5091688;28;20497;-59
2022/11/26 13:36:38;;;;;;;6.90;2.78;;;;;;;11.57;76.54;101693.47;5091607;28;20507;-61
2022/11/26 13:39:34;;;;;;;7.88;2.17;;;;;;;11.44;77.11;101697.44;5087181;28;20043;-60
2022/11/26 13:42:41;;;;;;;4.45;2.63;;;;;;;11.23;78.63;101692.28;5091070;28;20067;-61
2022/11/26 13:45:15;;;;;;;6.97;2.78;;;;;;;11.34;79.11;101697.44;5080335;28;20047;-61
2022/11/26 13:47:54;;;;;;;7.75;2.65;;;;;;;11.05;79.11;101695.66;5074366;28;20189;-61
2022/11/26 13:50:27;;;;;;;6.60;2.33;;;;;;;11.18;80.06;101699.88;5075057;28;20111;-60
2022/11/26 13:53:01;;;;;;;6.97;2.80;;;;;;;11.36;80.33;101699.00;5075271;28;20037;-61
2022/11/26 13:55:38;;;;;;;8.98;2.25;;;;;;;10.85;82.49;101693.97;5073808;28;20047;-52
2022/11/26 13:58:12;;;;;;;4.78;2.72;;;;;;;11.07;81.10;101703.50;5074231;28;20150;-53
2022/11/26 14:00:38;;;;;;;5.80;2.45;;;;;;;10.99;81.01;101703.38;5074771;28;20090;-59
2022/11/26 14:03:03;;;;;;;7.20;2.78;;;;;;;10.90;82.12;101696.25;5075366;28;20468;-58
2022/11/26 14:05:47;;;;;;;6.72;2.58;;;;;;;10.81;82.22;101701.41;5075064;28;20107;-66
2022/11/26 14:08:31;;;;;;;9.52;2.60;;;;;;;10.79;80.45;101697.22;5074889;28;20029;-58
2022/11/26 14:10:57;;;;;;;7.00;2.22;;;;;;;10.38;82.35;101698.28;5073080;28;20041;-59
2022/11/26 14:13:22;;;;;;;10.05;2.83;;;;;;;10.45;82.52;101696.75;5074815;28;20048;-59
2022/11/26 14:15:59;;;;;;;6.13;2.15;;;;;;;10.14;83.05;101704.75;5074552;28;20077;-60
2022/11/26 14:18:50;;;;;;;9.93;4.13;;;;;;;10.18;81.38;101700.00;5074835;28;20040;-60
2022/11/26 14:21:18;;;;;;;8.30;2.88;;;;;;;10.17;81.78;101692.97;5074285;28;20119;-59
2022/11/26 14:23:46;;;;;;;7.75;2.42;;;;;;;9.95;82.54;101694.88;5074467;28;20031;-61
2022/11/26 14:26:28;;;;;;;5.03;2.47;;;;;;;9.87;83.77;101700.03;5074447;28;20045;-56
2022/11/26 14:29:05;;;;;;;5.35;2.35;;;;;;;9.83;83.32;101689.78;5074552;28;20044;-59
2022/11/26 14:31:32;;;;;;;7.95;3.45;;;;;;;9.71;83.97;101697.00;5074079;28;20029;-58
2022/11/26 14:34:05;;;;;;;4.75;2.63;;;;;;;9.71;84.15;101694.34;5074196;28;20034;-60
2022/11/26 14:36:31;;;;;;;5.35;2.35;;;;;;;9.77;83.59;101691.16;5074205;28;20032;-59
2022/11/26 14:39:23;;;;;;;4.53;2.85;;;;;;;9.59;83.96;101692.75;5074249;28;20489;-60
2022/11/26 14:41:56;;;;;;;5.57;2.45;;;;;;;9.54;84.66;101689.63;5071098;28;20405;-56
2022/11/26 14:44:24;;;;;;;6.20;2.63;;;;;;;9.43;84.59;101694.03;5074146;28;20127;-59
2022/11/26 14:46:54;;;;;;;5.60;2.67;;;;;;;9.45;86.06;101697.44;5074094;28;20048;-59
2022/11/26 14:49:31;;;;;;;7.70;2.72;;;;;;;9.33;86.31;101695.81;5074241;28;20043;-62
2022/11/26 14:51:58;;;;;;;4.20;1.75;;;;;;;9.34;85.35;101697.50;5073939;28;20036;-63
2022/11/26 14:54:29;;;;;;;9.85;2.08;;;;;;;9.33;86.34;101697.63;5073656;28;20673;-63
2022/11/26 14:56:56;;;;;;;11.10;2.83;;;;;;;9.28;86.67;101684.72;5074034;28;20032;-63
2022/11/26 14:59:22;;;;;;;10.15;2.55;;;;;;;9.27;86.08;101682.19;5074079;28;20466;-63
2022/11/26 15:01:47;;;;;;;4.93;2.90;;;;;;;9.22;87.58;101682.59;5072430;28;20120;-64
2022/11/26 15:04:23;;;;;;;8.05;2.42;;;;;;;9.23;87.76;101687.75;5073780;28;20043;-63
2022/11/26 15:06:49;;;;;;;2.85;1.85;;;;;;;9.16;86.58;101685.75;5073754;28;20049;-63
2022/11/26 15:09:23;;;;;;;6.60;2.50;;;;;;;9.14;86.82;101685.06;5073764;28;20070;-63
2022/11/26 15:12:12;;;;;;;3.63;2.13;;;;;;;9.04;89.21;101682.31;5073610;28;20465;-63
2022/11/26 15:14:51;;;;;;;5.22;2.25;;;;;;;8.97;87.88;101678.47;5073822;28;20043;-63
2022/11/26 15:17:19;;;;;;;8.60;3.33;;;;;;;8.92;87.75;101681.50;5073534;28;20040;-63
2022/11/26 15:19:46;;;;;;;3.50;2.60;;;;;;;8.81;88.81;101675.44;5073918;28;20066;-63
2022/11/26 15:22:20;;;;;;;7.00;2.97;;;;;;;8.73;88.58;101676.03;5073353;28;20040;-63
2022/11/26 15:24:52;;;;;;;8.23;3.35;;;;;;;8.70;89.04;101673.66;5073621;28;20039;-63
2022/11/26 15:27:29;;;;;;;8.00;4.25;;;;;;;8.63;89.05;101662.69;5073476;28;20161;-63
2022/11/26 15:29:55;;;;;;;4.78;2.33;;;;;;;8.48;90.63;101666.59;5073571;28;20090;-63
2022/11/26 15:32:29;;;;;;;8.15;3.17;;;;;;;8.35;90.72;101660.56;5073199;28;20044;-62
2022/11/26 15:34:59;;;;;;;8.57;3.40;;;;;;;8.21;91.56;101666.97;5073324;28;20081;-63
2022/11/26 15:37:24;;;;;;;8.07;3.08;;;;;;;8.11;92.01;101666.88;5073137;28;20047;-63
2022/11/26 15:40:07;;;;;;;9.65;2.42;;;;;;;8.09;93.22;101667.97;5073397;28;20033;-63
2022/11/26 15:42:33;;;;;;;4.90;2.33;;;;;;;7.94;94.60;101670.03;5071908;28;20039;-63
2022/11/26 15:44:59;;;;;;;1.90;1.50;;;;;;;7.75;95.39;101665.31;5073278;28;20397;-63
2022/11/26 15:47:26;;;;;;;6.50;2.67;;;;;;;7.71;96.03;101665.69;5073102;28;20082;-63
2022/11/26 15:49:55;;;;;;;9.38;2.42;;;;;;;7.75;96.65;101662.66;5072928;28;20467;-63
2022/11/26 15:52:24;;;;;;;4.85;2.35;;;;;;;7.53;97.05;101665.31;5071554;28;20140;-63
2022/11/26 15:55:00;;;;;;;6.65;2.45;;;;;;;7.38;97.47;101672.66;5072921;28;20037;-64
2022/11/26 15:57:38;;;;;;;3.05;2.00;;;;;;;7.29;99.16;101668.88;5072916;28;20028;-63
2022/11/26 16:00:21;;;;;;;4.70;2.30;;;;;;;7.11;99.00;101675.63;5072788;28;20029;-63
2022/11/26 16:02:47;;;;;;;7.07;2.15;;;;;;;7.05;99.37;101671.63;5072957;28;20067;-65
2022/11/26 16:05:37;;;;;;;7.95;1.83;;;;;;;6.84;100.00;101670.56;5070845;28;20068;-63
2022/11/26 16:08:21;;;;;;;7.40;2.63;;;;;;;6.76;100.00;101671.13;5074249;28;20047;-64
2022/11/26 16:11:03;;;;;;;3.08;1.98;;;;;;;6.64;100.00;101672.03;5073246;28;20612;-64
2022/11/26 16:13:34;;;;;;;5.65;2.55;;;;;;;6.62;100.00;101675.78;5074233;28;20036;-64
2022/11/26 16:16:05;;;;;;;4.78;1.83;;;;;;;6.59;100.00;101679.50;5075164;28;20505;-64
2022/11/26 16:18:37;;;;;;;7.55;2.75;;;;;;;6.51;100.00;101677.38;5072677;28;20138;-64
2022/11/26 16:21:06;;;;;;;7.65;2.65;;;;;;;6.43;100.00;101668.31;5072091;28;20029;-64
2022/11/26 16:23:32;;;;;;;3.38;2.22;;;;;;;6.36;100.00;101680.31;5072650;28;20378;-64
2022/11/26 16:26:08;;;;;;;6.90;2.22;;;;;;;6.30;100.00;101672.81;5072416;28;20097;-64
2022/11/26 16:28:33;;;;;;;6.50;2.97;;;;;;;6.17;100.00;101668.41;5072399;28;20028;-64
2022/11/26 16:30:59;;;;;;;4.72;1.80;;;;;;;5.98;100.00;101673.31;5071979;28;20052;-64
2022/11/26 16:33:28;;;;;;;5.47;2.00;;;;;;;5.92;100.00;101684.34;5072331;28;20554;-69
2022/11/26 16:35:54;;;;;;;3.95;1.70;;;;;;;5.79;100.00;101679.03;5071996;28;20493;-69
2022/11/26 16:38:22;;;;;;;10.50;2.45;;;;;;;5.71;100.00;101673.44;5072269;28;20043;-69
2022/11/26 16:40:48;;;;;;;3.03;1.95;;;;;;;5.60;100.00;101674.19;5071863;28;20039;-69
2022/11/26 16:43:13;;;;;;;6.13;2.55;;;;;;;5.51;100.00;101679.28;5072132;28;20131;-69
2022/11/26 16:45:39;;;;;;;5.57;2.72;;;;;;;5.49;100.00;101675.91;5071997;28;20036;-67
2022/11/26 16:48:13;;;;;;;4.78;2.83;;;;;;;5.45;100.00;101675.25;5070674;28;20501;-68
2022/11/26 16:50:38;;;;;;;10.75;4.45;;;;;;;5.39;100.00;101680.94;5071718;28;20549;-68
2022/11/26 16:53:04;;;;;;;4.70;3.10;;;;;;;5.37;100.00;101683.72;5072009;28;20111;-69
2022/11/26 16:55:29;;;;;;;4.05;2.50;;;;;;;5.28;100.00;101684.34;5071833;28;20381;-69
2022/11/26 16:58:00;;;;;;;3.17;2.20;;;;;;;5.17;100.00;101682.41;5071914;28;20524;-69
2022/11/26 17:00:26;;;;;;;7.03;2.88;;;;;;;5.17;100.00;101679.78;5071512;28;20047;-68
2022/11/26 17:02:51;;;;;;;8.60;2.97;;;;;;;5.22;100.00;101681.28;5071815;28;20028;-69
2022/11/26 17:05:18;;;;;;;4.60;2.55;;;;;;;5.13;100.00;101675.63;5071754;28;20063;-68
2022/11/26 17:07:50;;;;;;;4.10;2.40;;;;;;;5.05;100.00;101675.31;5071840;28;20036;-68
2022/11/26 17:10:20;;;;;;;3.42;2.53;;;;;;;4.95;100.00;101684.78;5071563;28;20040;-68
2022/11/26 17:12:46;;;;;;;5.63;2.72;;;;;;;4.94;100.00;101691.03;5071869;28;20048;-68